createdAt,value
2019-04-16T00:01:45.366Z,6.20
2019-04-16T00:05:12.035Z,6.20
2019-04-16T00:08:19.523Z,6.47
2019-04-16T00:11:01.274Z,6.40
2019-04-16T00:13:55.805Z,6.80
2019-04-16T00:16:46.106Z,7.00
2019-04-16T00:19:36.559Z,6.10
2019-04-16T00:22:39.031Z,6.57
2019-04-16T00:25:31.870Z,6.83
2019-04-16T00:28:21.882Z,6.57
2019-04-16T00:31:12.074Z,6.90
2019-04-16T00:34:02.239Z,6.40
2019-04-16T00:36:52.697Z,6.40
2019-04-16T00:39:42.955Z,6.70
2019-04-16T00:42:33.029Z,6.87
2019-04-16T00:45:23.314Z,6.77
2019-04-16T00:48:13.892Z,7.53
2019-04-16T00:51:05.350Z,7.57
2019-04-16T00:53:55.705Z,8.00
2019-04-16T00:56:46.634Z,7.00
2019-04-16T00:59:37.546Z,7.87
2019-04-16T01:02:27.884Z,7.57
2019-04-16T01:05:18.295Z,7.23
2019-04-16T01:08:11.063Z,7.80
2019-04-16T01:11:01.217Z,8.47
2019-04-16T01:13:53.254Z,8.13
2019-04-16T01:16:43.154Z,7.70
2019-04-16T01:19:33.258Z,7.43
2019-04-16T01:22:24.569Z,8.10
2019-04-16T01:25:14.808Z,7.37
2019-04-16T01:28:07.415Z,7.90
2019-04-16T01:31:15.263Z,7.37
2019-04-16T01:34:20.963Z,7.80
2019-04-16T01:37:35.867Z,8.30
2019-04-16T01:40:35.142Z,8.40
2019-04-16T01:43:25.858Z,8.63
2019-04-16T01:46:17.015Z,8.10
2019-04-16T01:49:10.050Z,8.23
2019-04-16T01:51:59.270Z,8.53
2019-04-16T01:54:51.483Z,8.00
2019-04-16T01:57:42.077Z,8.23
2019-04-16T02:00:32.276Z,8.20
2019-04-16T02:03:22.558Z,8.53
2019-04-16T02:06:12.795Z,8.40
2019-04-16T02:09:03.690Z,9.63
2019-04-16T02:11:55.211Z,8.67
2019-04-16T02:14:47.311Z,9.50
2019-04-16T02:17:37.366Z,9.20
2019-04-16T02:20:27.454Z,9.00
2019-04-16T02:23:17.544Z,9.00
2019-04-16T02:26:07.853Z,9.20
2019-04-16T02:28:58.935Z,10.17
2019-04-16T02:31:51.578Z,9.13
2019-04-16T02:34:42.952Z,9.27
2019-04-16T02:37:36.307Z,8.93
2019-04-16T02:40:25.012Z,9.27
2019-04-16T02:43:15.112Z,9.50
2019-04-16T02:46:05.332Z,8.63
2019-04-16T02:48:55.701Z,9.17
2019-04-16T02:52:06.131Z,8.33
2019-04-16T02:55:21.020Z,9.10
2019-04-16T02:58:13.975Z,8.27
2019-04-16T03:01:15.231Z,8.60
2019-04-16T03:04:12.303Z,8.23
2019-04-16T03:07:04.168Z,8.87
2019-04-16T03:10:01.153Z,8.67
2019-04-16T03:12:46.479Z,8.40
2019-04-16T03:16:02.800Z,8.67
2019-04-16T03:18:58.433Z,9.00
2019-04-16T03:21:48.846Z,8.30
2019-04-16T03:24:40.257Z,7.77
2019-04-16T03:27:32.181Z,8.30
2019-04-16T03:30:22.483Z,8.33
2019-04-16T03:33:14.917Z,8.13
2019-04-16T03:36:04.652Z,7.70
2019-04-16T03:38:54.956Z,8.40
2019-04-16T03:41:45.279Z,8.30
2019-04-16T03:44:37.229Z,7.73
2019-04-16T03:47:27.361Z,8.23
2019-04-16T03:50:17.543Z,7.50
2019-04-16T03:53:08.818Z,7.63
2019-04-16T03:55:59.254Z,7.07
2019-04-16T03:58:49.775Z,8.07
2019-04-16T04:01:40.149Z,8.13
2019-04-16T04:04:30.455Z,7.83
2019-04-16T04:07:20.738Z,7.80
2019-04-16T04:10:10.799Z,8.10
2019-04-16T04:13:01.041Z,7.47
2019-04-16T04:15:55.142Z,7.33
2019-04-16T04:18:45.661Z,7.50
2019-04-16T04:21:36.055Z,7.97
2019-04-16T04:24:28.502Z,7.67
2019-04-16T04:27:19.357Z,7.77
2019-04-16T04:30:09.972Z,7.27
2019-04-16T04:33:00.790Z,7.77
2019-04-16T04:35:52.016Z,7.93
2019-04-16T04:38:42.375Z,7.20
2019-04-16T04:41:32.815Z,7.50
2019-04-16T04:44:25.928Z,7.50
2019-04-16T04:47:19.404Z,7.27
2019-04-16T04:50:08.386Z,7.70
2019-04-16T04:52:58.576Z,7.57
2019-04-16T04:55:48.829Z,7.13
2019-04-16T04:58:41.597Z,7.37
2019-04-16T05:01:31.564Z,7.13
2019-04-16T05:04:33.355Z,6.83
2019-04-16T05:07:25.751Z,7.20
2019-04-16T05:10:15.431Z,7.63
2019-04-16T05:13:05.601Z,7.37
2019-04-16T05:15:58.349Z,7.27
2019-04-16T05:18:48.036Z,7.00
2019-04-16T05:21:38.558Z,7.50
2019-04-16T05:24:29.976Z,7.13
2019-04-16T05:27:20.340Z,7.30
2019-04-16T05:30:10.730Z,6.70
2019-04-16T05:33:05.084Z,7.47
2019-04-16T05:35:52.710Z,6.87
2019-04-16T05:38:42.981Z,6.73
2019-04-16T05:41:33.341Z,7.37
2019-04-16T05:44:30.470Z,7.30
2019-04-16T05:47:25.324Z,7.30
2019-04-16T05:50:17.047Z,7.20
2019-04-16T05:53:08.235Z,7.33
2019-04-16T05:56:23.708Z,6.90
2019-04-16T05:59:14.650Z,6.93
2019-04-16T06:02:18.731Z,6.87
2019-04-16T06:05:12.468Z,6.77
2019-04-16T06:08:12.400Z,6.37
2019-04-16T06:11:08.197Z,6.37
2019-04-16T06:14:08.945Z,6.70
2019-04-16T06:17:18.195Z,6.50
2019-04-16T06:20:20.756Z,6.67
2019-04-16T06:23:24.880Z,6.43
2019-04-16T06:26:32.670Z,6.77
2019-04-16T06:29:47.057Z,7.20
2019-04-16T06:32:54.296Z,6.60
2019-04-16T06:36:12.448Z,6.33
2019-04-16T06:39:39.815Z,7.13
2019-04-16T06:42:45.005Z,7.07
2019-04-16T06:45:46.986Z,7.20
2019-04-16T06:48:45.944Z,6.93
2019-04-16T06:51:53.147Z,7.20
2019-04-16T06:55:03.744Z,7.50
2019-04-16T06:58:06.727Z,7.43
2019-04-16T07:01:15.772Z,8.30
2019-04-16T07:04:23.815Z,7.73
2019-04-16T07:07:39.866Z,7.97
2019-04-16T07:10:28.906Z,7.10
2019-04-16T07:13:19.237Z,8.03
2019-04-16T07:16:09.165Z,7.70
2019-04-16T07:18:59.984Z,7.33
2019-04-16T07:21:50.085Z,8.20
2019-04-16T07:24:40.525Z,7.80
2019-04-16T07:27:39.916Z,7.70
2019-04-16T07:30:51.736Z,7.57
2019-04-16T07:34:12.971Z,7.53
2019-04-16T07:37:25.222Z,8.00
2019-04-16T07:40:40.815Z,7.67
2019-04-16T07:43:50.354Z,7.73
2019-04-16T07:47:05.630Z,7.33
2019-04-16T07:50:03.992Z,7.00
2019-04-16T07:53:13.298Z,7.87
2019-04-16T07:56:04.919Z,7.53
2019-04-16T07:59:00.257Z,7.57
2019-04-16T08:01:48.833Z,7.73
2019-04-16T08:04:39.213Z,7.90
2019-04-16T08:07:29.640Z,7.47
2019-04-16T08:10:19.684Z,7.57
2019-04-16T08:13:21.081Z,7.57
2019-04-16T08:16:11.449Z,8.03
2019-04-16T08:19:02.573Z,7.83
2019-04-16T08:21:52.903Z,7.67
2019-04-16T08:24:46.985Z,7.57
2019-04-16T08:27:37.433Z,7.47
2019-04-16T08:30:28.184Z,7.50
2019-04-16T08:33:18.403Z,7.57
2019-04-16T08:36:09.446Z,7.53
2019-04-16T08:38:59.774Z,7.33
2019-04-16T08:41:52.459Z,7.40
2019-04-16T08:44:42.000Z,7.73
2019-04-16T08:47:32.336Z,7.47
2019-04-16T08:50:25.906Z,7.90
2019-04-16T08:53:14.401Z,8.07
2019-04-16T08:56:04.768Z,8.40
2019-04-16T08:59:00.026Z,10.00
2019-04-16T09:01:46.855Z,8.27
2019-04-16T09:04:37.126Z,9.57
2019-04-16T09:07:39.959Z,10.47
2019-04-16T09:10:31.103Z,8.07
2019-04-16T09:13:24.579Z,7.33
2019-04-16T09:16:14.837Z,9.63
2019-04-16T09:19:07.229Z,8.50
2019-04-16T09:21:57.182Z,8.03
2019-04-16T09:24:54.975Z,7.53
2019-04-16T09:27:47.951Z,7.50
2019-04-16T09:30:55.880Z,7.23
2019-04-16T09:33:57.490Z,8.23
2019-04-16T09:36:57.549Z,7.80
2019-04-16T09:40:16.498Z,7.50
2019-04-16T09:42:57.982Z,8.20
2019-04-16T09:45:48.424Z,8.77
2019-04-16T09:48:38.606Z,8.80
2019-04-16T09:51:29.110Z,7.97
2019-04-16T09:54:19.361Z,8.17
2019-04-16T09:57:09.578Z,8.20
2019-04-16T10:00:01.566Z,7.23
2019-04-16T10:02:55.266Z,8.60
2019-04-16T10:05:45.494Z,7.80
2019-04-16T10:08:36.031Z,9.30
2019-04-16T10:11:26.335Z,8.03
2019-04-16T10:14:18.589Z,7.60
2019-04-16T10:17:08.825Z,7.60
2019-04-16T10:19:59.143Z,7.13
2019-04-16T10:22:49.412Z,8.40
2019-04-16T10:25:39.709Z,7.70
2019-04-16T10:28:33.887Z,7.90
2019-04-16T10:31:25.806Z,7.50
2019-04-16T10:34:16.113Z,7.47
2019-04-16T10:37:06.332Z,7.17
2019-04-16T10:40:08.081Z,6.87
2019-04-16T10:43:18.820Z,7.57
2019-04-16T10:46:25.727Z,7.33
2019-04-16T10:49:33.548Z,7.37
2019-04-16T10:52:41.443Z,7.60
2019-04-16T10:56:05.890Z,7.10
2019-04-16T10:59:23.976Z,7.57
2019-04-16T11:02:38.815Z,7.23
2019-04-16T11:05:47.702Z,7.90
2019-04-16T11:08:37.982Z,6.80
2019-04-16T11:11:28.406Z,7.90
2019-04-16T11:14:18.734Z,7.53
2019-04-16T11:17:08.787Z,6.87
2019-04-16T11:20:00.161Z,7.33
2019-04-16T11:22:51.453Z,7.27
2019-04-16T11:25:42.228Z,7.20
2019-04-16T11:28:32.678Z,8.23
2019-04-16T11:31:23.728Z,7.90
2019-04-16T11:34:13.723Z,8.10
2019-04-16T11:37:08.252Z,7.73
2019-04-16T11:39:55.460Z,7.00
2019-04-16T11:42:45.732Z,7.03
2019-04-16T11:45:35.983Z,7.60
2019-04-16T11:48:26.284Z,6.57
2019-04-16T11:51:18.358Z,6.90
2019-04-16T11:54:11.404Z,6.87
2019-04-16T11:57:00.377Z,7.33
2019-04-16T12:00:05.757Z,7.20
2019-04-16T12:03:04.314Z,7.47
2019-04-16T12:06:27.830Z,6.87
2019-04-16T12:09:30.749Z,6.80
2019-04-16T12:12:24.540Z,7.07
2019-04-16T12:15:51.998Z,6.90
2019-04-16T12:18:55.729Z,7.97
2019-04-16T12:22:20.001Z,7.33
2019-04-16T12:25:29.248Z,7.40
2019-04-16T12:28:27.233Z,7.13
2019-04-16T12:31:38.487Z,7.17
2019-04-16T12:34:58.035Z,7.17
2019-04-16T12:38:06.043Z,7.03
2019-04-16T12:41:33.743Z,7.60
2019-04-16T12:44:44.713Z,6.97
2019-04-16T12:47:32.523Z,7.70
2019-04-16T12:50:50.787Z,7.50
2019-04-16T12:54:03.280Z,7.30
2019-04-16T12:57:21.781Z,7.30
2019-04-16T13:00:43.348Z,6.63
2019-04-16T13:03:52.706Z,7.33
2019-04-16T13:06:53.421Z,7.50
2019-04-16T13:10:05.617Z,7.00
2019-04-16T13:13:13.175Z,6.93
2019-04-16T13:16:11.465Z,7.27
2019-04-16T13:19:19.600Z,7.00
2019-04-16T13:22:11.910Z,6.53
2019-04-16T13:25:28.320Z,7.60
2019-04-16T13:28:20.439Z,7.07
2019-04-16T13:31:11.001Z,6.70
2019-04-16T13:34:01.455Z,7.07
2019-04-16T13:36:52.227Z,6.90
2019-04-16T13:39:50.884Z,6.93
2019-04-16T13:42:41.057Z,6.67
2019-04-16T13:45:33.919Z,6.63
2019-04-16T13:48:52.134Z,6.33
2019-04-16T13:51:44.974Z,6.47
2019-04-16T13:54:46.738Z,6.90
2019-04-16T13:57:38.092Z,6.40
2019-04-16T14:00:36.340Z,6.77
2019-04-16T14:03:25.421Z,6.40
2019-04-16T14:06:15.595Z,6.90
2019-04-16T14:09:08.884Z,6.80
2019-04-16T14:12:01.061Z,6.23
2019-04-16T14:14:51.115Z,7.40
2019-04-16T14:17:52.413Z,6.53
2019-04-16T14:20:32.727Z,6.90
2019-04-16T14:23:22.932Z,6.60
2019-04-16T14:26:13.004Z,6.93
2019-04-16T14:29:06.754Z,6.53
2019-04-16T14:31:55.087Z,6.80
2019-04-16T14:34:55.198Z,6.80
2019-04-16T14:37:45.748Z,6.23
2019-04-16T14:40:35.844Z,6.90
2019-04-16T14:43:32.091Z,6.80
2019-04-16T14:46:22.264Z,6.87
2019-04-16T14:49:15.260Z,7.23
2019-04-16T14:52:04.468Z,6.73
2019-04-16T14:55:03.628Z,6.83
2019-04-16T14:58:19.703Z,6.37
2019-04-16T15:01:28.309Z,6.67
2019-04-16T15:04:43.878Z,7.00
2019-04-16T15:07:44.906Z,6.63
2019-04-16T15:11:06.524Z,6.60
2019-04-16T15:14:23.446Z,7.20
2019-04-16T15:17:37.761Z,7.20
2019-04-16T15:20:47.202Z,6.57
2019-04-16T15:24:16.803Z,7.10
2019-04-16T15:27:37.741Z,6.50
2019-04-16T15:30:53.522Z,6.83
2019-04-16T15:33:53.490Z,7.00
2019-04-16T15:37:00.501Z,6.90
2019-04-16T15:40:01.353Z,7.20
2019-04-16T15:43:13.706Z,6.90
2019-04-16T15:46:25.231Z,7.10
2019-04-16T15:49:24.145Z,7.53
2019-04-16T15:52:39.553Z,7.20
2019-04-16T15:55:37.540Z,7.10
2019-04-16T15:58:32.784Z,6.83
2019-04-16T16:01:47.343Z,6.73
2019-04-16T16:04:55.447Z,6.90
2019-04-16T16:08:01.803Z,7.33
2019-04-16T16:10:57.049Z,7.20
2019-04-16T16:13:47.118Z,6.93
2019-04-16T16:16:41.928Z,7.30
2019-04-16T16:19:28.964Z,7.50
2019-04-16T16:22:19.213Z,7.57
2019-04-16T16:25:09.421Z,7.00
2019-04-16T16:27:59.812Z,7.23
2019-04-16T16:30:49.889Z,7.30
2019-04-16T16:33:40.120Z,6.83
2019-04-16T16:36:30.097Z,7.80
2019-04-16T16:39:24.561Z,7.50
2019-04-16T16:42:18.179Z,7.23
2019-04-16T16:45:09.253Z,6.97
2019-04-16T16:47:59.289Z,7.07
2019-04-16T16:50:51.617Z,7.07
2019-04-16T16:53:48.725Z,7.13
2019-04-16T16:56:44.351Z,7.40
2019-04-16T16:59:40.219Z,7.30
2019-04-16T17:02:41.224Z,7.43
2019-04-16T17:05:34.321Z,7.50
2019-04-16T17:08:27.041Z,7.37
2019-04-16T17:11:17.231Z,7.60
2019-04-16T17:14:07.422Z,8.23
2019-04-16T17:17:11.809Z,8.03
2019-04-16T17:19:50.875Z,7.53
2019-04-16T17:22:41.769Z,7.27
2019-04-16T17:25:36.592Z,8.13
2019-04-16T17:28:24.500Z,7.53
2019-04-16T17:31:15.228Z,7.50
2019-04-16T17:34:05.512Z,7.70
2019-04-16T17:36:56.313Z,7.60
2019-04-16T17:39:50.591Z,8.00
2019-04-16T17:42:43.619Z,7.67
2019-04-16T17:46:01.704Z,8.07
2019-04-16T17:49:02.463Z,7.60
2019-04-16T17:52:05.489Z,7.43
2019-04-16T17:55:14.649Z,7.73
2019-04-16T17:58:27.374Z,8.13
2019-04-16T18:01:44.482Z,7.50
2019-04-16T18:05:00.791Z,7.83
2019-04-16T18:08:19.996Z,7.63
2019-04-16T18:11:13.564Z,7.83
2019-04-16T18:14:11.373Z,7.40
2019-04-16T18:17:10.634Z,8.20
2019-04-16T18:20:29.025Z,7.60
2019-04-16T18:23:29.213Z,7.97
2019-04-16T18:26:35.738Z,7.07
2019-04-16T18:29:32.891Z,7.60
2019-04-16T18:32:39.480Z,7.27
2019-04-16T18:35:37.546Z,8.23
2019-04-16T18:38:45.690Z,7.57
2019-04-16T18:41:43.270Z,7.37
2019-04-16T18:45:05.040Z,7.60
2019-04-16T18:48:13.959Z,7.77
2019-04-16T18:51:03.292Z,7.90
2019-04-16T18:53:53.645Z,7.70
2019-04-16T18:56:45.272Z,7.60
2019-04-16T18:59:35.680Z,7.53
2019-04-16T19:02:28.931Z,7.17
2019-04-16T19:05:19.341Z,7.57
2019-04-16T19:08:10.120Z,7.87
2019-04-16T19:11:00.617Z,7.80
2019-04-16T19:13:51.108Z,8.00
2019-04-16T19:16:41.084Z,7.60
2019-04-16T19:19:32.452Z,7.53
2019-04-16T19:22:22.596Z,7.33
2019-04-16T19:25:12.737Z,8.00
2019-04-16T19:28:06.005Z,7.77
2019-04-16T19:30:55.393Z,7.27
2019-04-16T19:33:45.724Z,7.43
2019-04-16T19:36:35.990Z,7.37
2019-04-16T19:39:28.579Z,7.17
2019-04-16T19:42:18.943Z,7.70
2019-04-16T19:45:12.168Z,7.73
2019-04-16T19:48:02.155Z,8.03
2019-04-16T19:50:52.632Z,7.30
2019-04-16T19:53:44.651Z,7.50
2019-04-16T19:56:34.840Z,7.33
2019-04-16T19:59:25.154Z,7.33
2019-04-16T20:02:15.481Z,7.87
2019-04-16T20:05:06.773Z,6.70
2019-04-16T20:07:57.112Z,7.00
2019-04-16T20:10:48.775Z,7.93
2019-04-16T20:13:39.035Z,7.23
2019-04-16T20:16:29.760Z,7.63
2019-04-16T20:19:19.702Z,7.20
2019-04-16T20:22:09.747Z,7.30
2019-04-16T20:25:00.138Z,7.23
2019-04-16T20:27:50.436Z,7.67
2019-04-16T20:30:40.821Z,7.47
2019-04-16T20:33:31.194Z,7.10
2019-04-16T20:36:22.728Z,7.10
2019-04-16T20:39:14.517Z,7.87
2019-04-16T20:42:04.722Z,7.23
2019-04-16T20:44:55.000Z,7.30
2019-04-16T20:47:45.343Z,8.27
2019-04-16T20:50:35.457Z,7.43
2019-04-16T20:53:25.394Z,7.80
2019-04-16T20:56:19.954Z,7.17
2019-04-16T20:59:07.305Z,7.80
2019-04-16T21:01:57.465Z,8.30
2019-04-16T21:04:47.739Z,7.47
2019-04-16T21:07:37.726Z,7.40
2019-04-16T21:10:28.048Z,8.07
2019-04-16T21:13:19.485Z,7.57
2019-04-16T21:16:09.737Z,7.13
2019-04-16T21:18:59.745Z,8.13
2019-04-16T21:21:55.096Z,7.97
2019-04-16T21:24:41.538Z,8.07
2019-04-16T21:27:33.637Z,7.00
2019-04-16T21:30:24.075Z,7.50
2019-04-16T21:33:20.401Z,7.90
2019-04-16T21:36:12.588Z,7.60
2019-04-16T21:39:33.820Z,7.73
2019-04-16T21:42:23.875Z,7.87
2019-04-16T21:45:16.517Z,7.87
2019-04-16T21:48:06.152Z,7.60
2019-04-16T21:50:56.353Z,7.67
2019-04-16T21:53:46.826Z,8.20
2019-04-16T21:56:39.758Z,7.80
2019-04-16T21:59:28.969Z,8.20
2019-04-16T22:02:25.305Z,8.20
2019-04-16T22:05:17.714Z,7.53
2019-04-16T22:08:07.868Z,8.23
2019-04-16T22:10:59.217Z,8.30
2019-04-16T22:13:50.637Z,8.23
2019-04-16T22:16:42.857Z,9.00
2019-04-16T22:19:33.291Z,8.70
2019-04-16T22:22:27.340Z,8.93
2019-04-16T22:25:15.255Z,9.00
2019-04-16T22:28:05.545Z,8.43
2019-04-16T22:30:56.745Z,9.13
2019-04-16T22:33:46.756Z,9.30
2019-04-16T22:36:36.994Z,8.90
2019-04-16T22:39:38.542Z,8.90
2019-04-16T22:42:47.749Z,8.97
2019-04-16T22:45:42.245Z,9.30
2019-04-16T22:48:32.173Z,8.80
2019-04-16T22:51:23.002Z,8.97
2019-04-16T22:54:13.199Z,8.63
2019-04-16T22:57:08.924Z,8.20
2019-04-16T22:59:58.878Z,8.57
2019-04-16T23:02:50.369Z,8.30
2019-04-16T23:05:40.553Z,8.30
2019-04-16T23:08:31.161Z,9.13
2019-04-16T23:11:23.751Z,9.10
2019-04-16T23:14:13.837Z,8.43
2019-04-16T23:17:05.467Z,8.20
2019-04-16T23:19:55.932Z,7.67
2019-04-16T23:22:46.679Z,7.70
2019-04-16T23:25:37.785Z,8.37
2019-04-16T23:28:28.018Z,9.17
2019-04-16T23:31:19.564Z,8.77
2019-04-16T23:34:09.931Z,9.60
2019-04-16T23:37:00.230Z,8.67
2019-04-16T23:39:50.271Z,9.07
2019-04-16T23:42:47.505Z,9.23
2019-04-16T23:45:56.102Z,9.40
2019-04-16T23:49:08.081Z,8.60
2019-04-16T23:52:06.385Z,9.60
2019-04-16T23:55:17.517Z,9.83
2019-04-16T23:58:18.191Z,10.10
